createdAt,value
2023-01-07T00:07:13.490Z,101021.50
2023-01-07T00:17:16.713Z,101025.91
2023-01-07T00:27:21.405Z,101014.84
2023-01-07T00:37:42.189Z,101007.06
2023-01-07T00:47:46.566Z,100996.81
2023-01-07T00:57:49.820Z,100983.09
2023-01-07T01:07:54.640Z,100984.00
2023-01-07T01:17:57.952Z,100978.16
2023-01-07T01:28:02.235Z,100969.63
2023-01-07T01:38:04.984Z,100960.25
2023-01-07T01:48:11.086Z,100973.28
2023-01-07T01:58:19.834Z,100963.97
2023-01-07T02:08:25.712Z,100952.91
2023-01-07T02:18:46.295Z,100927.16
2023-01-07T02:29:29.624Z,100919.34
2023-01-07T02:39:46.499Z,100907.22
2023-01-07T02:49:50.308Z,100901.81
2023-01-07T03:00:09.653Z,100909.59
2023-01-07T03:10:22.722Z,100895.91
2023-01-07T03:20:28.961Z,100895.09
2023-01-07T03:30:32.374Z,100882.13
2023-01-07T03:40:37.345Z,100882.16
2023-01-07T03:50:41.020Z,100887.16
2023-01-07T04:00:45.490Z,100886.16
2023-01-07T04:10:53.202Z,100873.06
2023-01-07T04:20:57.597Z,100855.91
2023-01-07T04:31:01.409Z,100847.28
2023-01-07T04:41:07.671Z,100849.84
2023-01-07T04:51:10.758Z,100836.13
2023-01-07T05:01:16.322Z,100838.72
2023-01-07T05:11:21.989Z,100819.09
2023-01-07T05:21:29.997Z,100819.38
2023-01-07T05:31:33.886Z,100807.38
2023-01-07T05:41:38.387Z,100799.78
2023-01-07T05:51:42.625Z,100789.78
2023-01-07T06:01:47.164Z,100782.06
2023-01-07T06:11:50.224Z,100765.84
2023-01-07T06:21:54.422Z,100757.44
2023-01-07T06:31:57.306Z,100755.72
2023-01-07T06:42:01.808Z,100740.22
2023-01-07T06:52:05.268Z,100726.50
2023-01-07T07:02:18.569Z,100716.34
2023-01-07T07:12:21.719Z,100713.78
2023-01-07T07:22:26.249Z,100718.09
2023-01-07T07:32:29.389Z,100709.41
2023-01-07T07:43:09.479Z,100693.28
2023-01-07T07:52:58.138Z,100670.97
2023-01-07T08:03:02.651Z,100660.84
2023-01-07T08:13:06.156Z,100652.34
2023-01-07T08:23:11.171Z,100647.81
2023-01-07T08:33:14.149Z,100633.19
2023-01-07T08:43:18.556Z,100622.09
2023-01-07T08:53:21.877Z,100619.63
2023-01-07T09:03:26.257Z,100607.72
2023-01-07T09:13:29.127Z,100599.72
2023-01-07T09:23:33.566Z,100577.25
2023-01-07T09:33:36.557Z,100573.06
2023-01-07T09:43:59.792Z,100554.16
2023-01-07T09:54:06.905Z,100549.41
2023-01-07T10:04:23.590Z,100547.84
2023-01-07T10:14:37.750Z,100538.72
2023-01-07T10:24:45.646Z,100542.91
2023-01-07T10:34:50.662Z,100529.84
2023-01-07T10:45:15.559Z,100524.63
2023-01-07T10:55:42.845Z,100497.09
2023-01-07T11:05:49.816Z,100485.69
2023-01-07T11:15:56.417Z,100455.34
2023-01-07T11:26:16.909Z,100433.09
2023-01-07T11:36:19.909Z,100409.00
2023-01-07T11:46:26.919Z,100389.06
2023-01-07T11:56:33.325Z,100366.69
2023-01-07T12:06:41.114Z,100338.03
2023-01-07T12:16:44.493Z,100309.63
2023-01-07T12:26:57.376Z,100304.25
2023-01-07T12:37:05.541Z,100291.44
2023-01-07T12:47:30.833Z,100283.50
2023-01-07T12:57:38.347Z,100265.38
2023-01-07T13:07:50.175Z,100253.28
2023-01-07T13:17:54.869Z,100249.09
2023-01-07T13:28:17.545Z,100236.13
2023-01-07T13:38:46.567Z,100233.28
2023-01-07T13:48:53.037Z,100224.88
2023-01-07T13:58:57.103Z,100197.41
2023-01-07T14:09:15.942Z,100180.47
2023-01-07T14:19:40.181Z,100184.94
2023-01-07T14:29:47.307Z,100172.16
2023-01-07T14:39:51.562Z,100176.66
2023-01-07T14:50:10.617Z,100173.81
2023-01-07T15:00:49.024Z,100161.31
2023-01-07T15:11:12.536Z,100165.66
2023-01-07T15:21:26.918Z,100160.72
2023-01-07T15:31:42.307Z,100150.69
2023-01-07T15:41:45.241Z,100128.44
2023-01-07T15:51:50.585Z,100120.75
2023-01-07T16:02:02.520Z,100124.22
2023-01-07T16:12:20.890Z,100098.47
2023-01-07T16:22:43.481Z,100084.81
2023-01-07T16:32:48.388Z,100081.19
2023-01-07T16:42:52.612Z,100078.00
2023-01-07T16:52:57.973Z,100062.44
2023-01-07T17:03:01.341Z,100052.06
2023-01-07T17:13:08.537Z,100064.03
2023-01-07T17:23:33.184Z,100051.25
2023-01-07T17:33:37.805Z,100052.59
2023-01-07T17:43:40.833Z,100040.03
2023-01-07T17:53:48.228Z,100038.13
2023-01-07T18:03:52.322Z,100029.16
2023-01-07T18:13:56.433Z,100021.06
2023-01-07T18:23:59.522Z,100004.00
2023-01-07T18:34:03.833Z,99987.16
2023-01-07T18:44:06.995Z,99975.09
2023-01-07T18:54:11.141Z,99963.34
2023-01-07T19:04:14.203Z,99938.97
2023-01-07T19:14:18.953Z,99946.38
2023-01-07T19:24:22.681Z,99956.25
2023-01-07T19:34:27.106Z,99950.75
2023-01-07T19:44:30.033Z,99971.22
2023-01-07T19:54:35.336Z,99965.09
2023-01-07T20:04:40.195Z,99957.94
2023-01-07T20:25:06.797Z,99946.19
2023-01-07T20:35:11.378Z,99939.59
2023-01-07T20:45:14.421Z,99942.47
2023-01-07T20:55:19.137Z,99927.09
2023-01-07T21:05:24.578Z,99907.41
2023-01-07T21:15:29.248Z,99911.63
2023-01-07T21:25:32.527Z,99888.56
2023-01-07T21:35:40.942Z,99890.34
2023-01-07T21:45:44.001Z,99916.97
2023-01-07T21:55:48.521Z,99915.34
2023-01-07T22:05:58.972Z,99884.47
2023-01-07T22:16:05.694Z,99887.72
2023-01-07T22:26:09.540Z,99880.09
2023-01-07T22:36:16.012Z,99885.41
2023-01-07T22:46:23.494Z,99888.09
2023-01-07T22:56:28.376Z,99877.88
2023-01-07T23:06:32.411Z,99872.06
2023-01-07T23:16:38.508Z,99858.38
2023-01-07T23:26:42.019Z,99834.38
2023-01-07T23:36:46.548Z,99829.97
2023-01-07T23:46:49.787Z,99818.06
2023-01-07T23:56:54.172Z,99834.47
